• Join FlightAware (Why Join?)
  • Login
  • US Flag 
11:23PM EDT


 

Airport Tracker/Info


-or-


 

Live Flight TrackerFlight Track Log ✈ SWA718 ✈ 24-Apr-2013 ✈ KMCO - KMDW

Flight Track Log - Related Links

Times and Time Zones

All times are in EDT time to prevent confusion due to time zone crossing. See the SWA718 flight status page for this flight to view local times or setup timezone preferences in your user account.

Time Position Orientation Groundspeed Altitude Reporting Facility
EDT Latitude Longitude Course Direction KTS MPH feet Rate Location/Type
07:36PM 28.4000 -81.3000 221° Southwest 161 185 800  Level Orlando TRACON
07:36PM 28.3833 -81.3167 221° Southwest 205 236 1,400 2,520 Climbing Orlando TRACON
07:37PM 28.3333 -81.3500 210° Southwest 224 258 4,400 3,000 Climbing Orlando TRACON
07:38PM 28.3167 -81.4167 254° West 229 264 7,400 2,580 Climbing Orlando TRACON
07:40PM 28.3142 -81.5511 269° West 253 291 11,300 2,280 Climbing Jacksonville Center
07:41PM 28.3108 -81.6358 267° West 264 304 13,600 2,160 Climbing Jacksonville Center
07:42PM 28.3117 -81.7325 271° West 282 325 15,700 2,040 Climbing Jacksonville Center
07:43PM 28.3125 -81.8317 271° West 303 349 17,700 1,560 Climbing Jacksonville Center
07:44PM 28.3133 -81.9306 271° West 334 384 18,900 1,140 Climbing Jacksonville Center
07:45PM 28.3183 -82.0436 273° West 355 409 20,000 1,200 Climbing Jacksonville Center
07:46PM 28.3378 -82.1614 281° West 376 433 21,400 1,560 Climbing Jacksonville Center
07:47PM 28.4236 -82.2339 323° Northwest 356 410 23,200 1,500 Climbing Jacksonville Center
07:48PM 28.5303 -82.2925 334° Northwest 377 434 24,500 1,320 Climbing Jacksonville Center
07:49PM 28.6372 -82.3486 335° Northwest 398 458 25,900 1,680 Climbing Jacksonville Center
07:50PM 28.7417 -82.4072 334° Northwest 410 472 27,900 1,500 Climbing Jacksonville Center
07:51PM 28.8461 -82.4611 336° Northwest 410 472 29,000 1,020 Climbing Jacksonville Center
07:52PM 28.9528 -82.5178 335° Northwest 410 472 30,000 1,500 Climbing Jacksonville Center
07:53PM 29.0533 -82.5767 333° Northwest 410 472 32,100 1,440 Climbing Jacksonville Center
07:54PM 29.1556 -82.6311 335° Northwest 405 466 32,900 900 Climbing Jacksonville Center
07:55PM 29.2558 -82.6856 335° Northwest 405 466 34,000 1,200 Climbing Jacksonville Center
07:56PM 29.3561 -82.7400 335° Northwest 400 460 35,300 960 Climbing Jacksonville Center
07:57PM 29.4522 -82.7925 335° Northwest 395 455 36,000 300 Climbing Jacksonville Center
07:58PM 29.5631 -82.8567 333° Northwest 390 449 36,000  Level Jacksonville Center
07:59PM 29.6611 -82.9117 334° Northwest 383 441 36,000  Level Jacksonville Center
08:00PM 29.7611 -82.9644 335° Northwest 390 449 36,000  Level Jacksonville Center
08:01PM 29.8572 -83.0194 334° Northwest 390 449 36,000  Level Jacksonville Center
08:02PM 29.9594 -83.0747 335° Northwest 390 449 36,000  Level Jacksonville Center
08:03PM 30.0597 -83.1278 335° Northwest 390 449 36,000  Level Jacksonville Center
08:04PM 30.1556 -83.1833 333° Northwest 390 449 36,000  Level Jacksonville Center
08:05PM 30.2556 -83.2389 334° Northwest 390 449 36,000  Level Jacksonville Center
08:06PM 30.3556 -83.2947 334° Northwest 390 449 36,000  Level Jacksonville Center
08:07PM 30.4558 -83.3506 334° Northwest 390 449 36,000  Level Jacksonville Center
08:08PM 30.5558 -83.4064 334° Northwest 390 449 36,000  Level Jacksonville Center
08:09PM 30.6578 -83.4650 334° Northwest 395 455 36,000  Level Jacksonville Center
08:10PM 30.7578 -83.5236 333° Northwest 400 460 36,000  Level Jacksonville Center
08:11PM 30.8575 -83.5800 334° Northwest 400 460 36,000  Level Jacksonville Center
08:12PM 30.9575 -83.6339 335° Northwest 400 460 36,000  Level Jacksonville Center
08:13PM 31.0553 -83.6906 334° Northwest 400 460 36,000  Level Jacksonville Center
08:14PM 31.1553 -83.7494 333° Northwest 394 453 36,000  Level Jacksonville Center
08:15PM 31.2550 -83.8064 334° Northwest 394 453 36,000  Level Jacksonville Center
08:17PM 31.4689 -83.9317 333° Northwest 382 440 36,000  Level Atlanta Center
08:18PM 31.5714 -83.9731 341° North 382 440 36,000  Level Atlanta Center
08:19PM 31.6819 -83.9997 348° North 392 451 36,000  Level Atlanta Center
08:20PM 31.7947 -84.0217 351° North 397 457 36,000  Level Atlanta Center
08:21PM 31.9031 -84.0436 350° North 397 457 36,000  Level Atlanta Center
08:22PM 32.0158 -84.0706 349° North 397 457 36,000  Level Atlanta Center
08:23PM 32.1056 -84.0878 351° North 397 457 36,000  Level Atlanta Center
08:24PM 32.2267 -84.1150 349° North 397 457 36,000  Level Atlanta Center
08:25PM 32.3394 -84.1422 348° North 402 463 36,000  Level Atlanta Center
08:26PM 32.4519 -84.1669 349° North 412 474 36,000  Level Atlanta Center
08:27PM 32.5667 -84.1942 349° North 412 474 36,000  Level Atlanta Center
08:28PM 32.6817 -84.2189 350° North 412 474 36,000  Level Atlanta Center
08:29PM 32.8067 -84.2489 349° North 412 474 36,000  Level Atlanta Center
08:30PM 32.9236 -84.2739 350° North 412 474 36,000  Level Atlanta Center
08:31PM 33.0383 -84.3039 348° North 412 474 36,000  Level Atlanta Center
08:32PM 33.1447 -84.3267 350° North 417 480 36,000  Level Atlanta Center
08:33PM 33.2575 -84.3517 349° North 417 480 36,000  Level Atlanta Center
08:34PM 33.3742 -84.3772 350° North 423 487 36,000  Level Atlanta Center
08:35PM 33.4911 -84.4050 349° North 424 488 36,000  Level Atlanta Center
08:36PM 33.6183 -84.4356 349° North 424 488 36,000  Level Atlanta Center
08:37PM 33.7331 -84.4633 349° North 424 488 36,000  Level Atlanta Center
08:38PM 33.8478 -84.4914 349° North 424 488 36,000  Level Atlanta Center
08:39PM 33.9667 -84.5197 349° North 429 494 36,000  Level Atlanta Center
08:40PM 34.0875 -84.5506 348° North 435 501 36,000  Level Atlanta Center
08:41PM 34.2000 -84.5739 350° North 440 506 36,000  Level Atlanta Center
08:42PM 34.3169 -84.6022 349° North 440 506 36,000  Level Atlanta Center
08:43PM 34.4378 -84.6306 349° North 434 499 36,000  Level Atlanta Center
08:44PM 34.5608 -84.6492 353° North 429 494 36,000  Level Atlanta Center
08:45PM 34.6881 -84.6703 352° North 435 501 36,000  Level Atlanta Center
08:46PM 34.8089 -84.6889 353° North 430 495 36,000  Level Atlanta Center
08:47PM 34.9300 -84.7075 353° North 430 495 36,000  Level Atlanta Center
08:48PM 35.0508 -84.7239 354° North 430 495 36,000  Level Atlanta Center
08:49PM 35.1717 -84.7425 353° North 430 495 36,000  Level Atlanta Center
08:50PM 35.2925 -84.7639 352° North 430 495 36,000  Level Atlanta Center
08:51PM 35.4092 -84.7981 347° North 430 495 36,000  Level Atlanta Center
08:52PM 35.5258 -84.8297 348° North 430 495 36,000  Level Atlanta Center
08:53PM 35.6383 -84.8617 347° North 430 495 36,000  Level Atlanta Center
08:54PM 35.7550 -84.8933 348° North 420 483 36,000  Level Atlanta Center
08:56PM 35.9219 -84.9406 347° North 422 486 36,000  Level Indianapolis Center
08:57PM 36.0411 -84.9747 347° North 414 476 36,000  Level Indianapolis Center
08:58PM 36.1522 -85.0064 347° North 409 471 36,000  Level Indianapolis Center
08:59PM 36.2647 -85.0386 347° North 414 476 36,000  Level Indianapolis Center
09:00PM 36.3767 -85.0700 347° North 413 475 36,000  Level Indianapolis Center
09:01PM 36.5117 -85.1092 347° North 414 476 36,000  Level Indianapolis Center
09:02PM 36.6244 -85.1411 347° North 416 479 36,000  Level Indianapolis Center
09:03PM 36.7367 -85.1736 347° North 414 476 36,000  Level Indianapolis Center
09:04PM 36.8492 -85.2061 347° North 413 475 36,000  Level Indianapolis Center
09:05PM 36.9611 -85.2386 347° North 413 475 36,000  Level Indianapolis Center
09:06PM 37.0772 -85.2728 347° North 412 474 36,000  Level Indianapolis Center
09:07PM 37.1872 -85.3061 346° North 407 468 36,000  Level Indianapolis Center
09:08PM 37.2992 -85.3381 347° North 410 472 36,000  Level Indianapolis Center
09:09PM 37.4100 -85.3722 346° North 406 467 36,000  Level Indianapolis Center
09:10PM 37.5219 -85.4036 347° North 409 471 36,000  Level Indianapolis Center
09:11PM 37.6319 -85.4378 346° North 404 465 36,000  Level Indianapolis Center
09:12PM 37.7433 -85.4711 347° North 409 471 36,000  Level Indianapolis Center
09:13PM 37.8589 -85.5044 347° North 415 478 36,000  Level Indianapolis Center
09:14PM 37.9706 -85.5369 347° North 412 474 36,000 -480 Level Indianapolis Center
09:15PM 38.0806 -85.5706 346° North 407 468 35,100 -540 Descending Indianapolis Center
09:16PM 38.1942 -85.5953 350° North 411 473 35,000 -60 Descending Indianapolis Center
09:17PM 38.3322 -85.6214 352° North 415 478 35,000  Level Indianapolis Center
09:18PM 38.4478 -85.6439 351° North 419 482 35,000  Level Indianapolis Center
09:19PM 38.5633 -85.6667 351° North 419 482 35,000 -420 Level Indianapolis Center
09:20PM 38.6694 -85.6861 352° North 417 480 34,200 -960 Descending Indianapolis Center
09:21PM 38.7850 -85.7078 352° North 417 480 33,100 -1,020 Descending Indianapolis Center
09:22PM 38.8964 -85.7308 351° North 406 467 32,200 -960 Descending Indianapolis Center
09:23PM 39.0319 -85.7583 351° North 418 481 31,200 -960 Descending Indianapolis Center
09:24PM 39.1533 -85.7811 352° North 434 499 30,300 -900 Descending Indianapolis Center
09:25PM 39.2758 -85.8058 351° North 440 506 29,400 -1,020 Descending Indianapolis Center
09:26PM 39.3942 -85.8289 351° North 433 498 28,300 -720 Descending Indianapolis Center
09:27PM 39.5081 -85.8525 351° North 417 480 28,000 -120 Descending Indianapolis Center
09:29PM 39.6452 -85.8766 352° North  Level FlightAware Approximate
09:29PM 39.7381 -85.8975 352° North 421 484 28,000  Level Indianapolis Center
09:30PM 39.8533 -85.9208 351° North 421 484 27,700 -1,440 Descending Indianapolis Center
09:31PM 39.9797 -85.9464 351° North 397 457 25,100 -1,860 Descending Indianapolis Center
09:32PM 40.0808 -85.9800 346° North 373 429 24,000 -600 Descending Indianapolis Center
09:33PM 40.1642 -86.0172 341° North 378 435 24,000  Level Chicago Center
09:34PM 40.2672 -86.0656 340° North 391 450 24,000 -600 Level Chicago Center
09:35PM 40.3700 -86.1117 341° North 389 448 22,800 -1,140 Descending Chicago Center
09:36PM 40.4631 -86.1586 339° North 364 419 21,700 -1,080 Descending Chicago Center
09:37PM 40.5539 -86.1983 342° North 347 399 20,700 -960 Descending Chicago Center
09:38PM 40.6464 -86.2425 340° North 350 403 19,800 -1,200 Descending Chicago Center
09:39PM 40.7464 -86.2906 340° North 351 404 18,300 -1,740 Descending Chicago Center
09:40PM 40.8372 -86.3319 341° North 346 398 16,300 -2,100 Descending Chicago Center
09:41PM 40.9231 -86.3731 340° North 331 381 14,100 -2,100 Descending Chicago Center
09:42PM 41.0061 -86.4133 340° North 319 367 12,000 -1,500 Descending Chicago Center
09:43PM 41.0683 -86.4803 321° Northwest 301 346 11,100 -840 Descending Chicago Center
09:44PM 41.1231 -86.5667 310° West 312 359 10,300 -540 Descending Chicago Center
09:46PM 41.1806 -86.6528 312° West 312 359 10,000 -180 Descending Chicago Center
09:47PM 41.2392 -86.7406 312° West 304 350 10,000  Level Chicago Center
09:48PM 41.3036 -86.8392 311° West 300 345 10,000  Level Chicago Center
09:49PM 41.3597 -86.9231 312° West 305 351 10,000 -300 Level Chicago Center
09:50PM 41.4117 -87.0003 312° West 284 327 9,400 -1,020 Descending Chicago Center
09:51PM 41.4564 -87.0697 311° West 255 293 7,900 -1,380 Descending Chicago Center
09:51PM 41.4833 -87.1333 300° West 248 285 7,000 -1,140 Descending Chicago TRACON
09:52PM 41.5167 -87.2167 298° West 254 292 6,000 -960 Descending Chicago TRACON
09:53PM 41.5500 -87.3000 298° West 252 290 5,100 -900 Descending Chicago TRACON
09:54PM 41.5833 -87.3833 298° West 245 282 4,300 -900 Descending Chicago TRACON
09:55PM 41.5947 -87.4094 300° West 249 287 3,900 -900 Descending Chicago Center
09:56PM 41.6261 -87.4869 298° West 245 282 3,100 -540 Descending Chicago Center
09:57PM 41.6556 -87.5608 298° West 238 274 2,900 -300 Descending Chicago Center
09:58PM 41.6881 -87.6164 308° West 212 244 2,500 -300 Descending Chicago Center
09:58PM 41.7167 -87.6500 319° Northwest 175 201 2,500 -420 Level Chicago TRACON
09:59PM 41.7333 -87.6833 304° West 145 167 1,900 -480 Descending Chicago TRACON
10:00PM 41.7833 -87.6833 360° North 165 190 1,600 -300 Descending Chicago TRACON
10:01PM 41.8167 -87.7000 340° North 134 154 1,400 -240 Descending Chicago TRACON
10:04PM 41.7833 -87.7500 340° North  Level FlightAware Approximate